createdAt,value
2019-05-20T00:00:06.755Z,100498.15
2019-05-20T00:01:08.963Z,100504.30
2019-05-20T00:02:24.348Z,100504.30
2019-05-20T00:03:15.411Z,100505.61
2019-05-20T00:04:17.983Z,100500.77
2019-05-20T00:05:20.178Z,100508.62
2019-05-20T00:06:22.790Z,100510.84
2019-05-20T00:07:25.068Z,100508.62
2019-05-20T00:08:27.639Z,100504.69
2019-05-20T00:09:29.850Z,100502.47
2019-05-20T00:10:32.357Z,100498.55
2019-05-20T00:11:34.649Z,100502.08
2019-05-20T00:12:37.181Z,100500.38
2019-05-20T00:13:39.379Z,100502.08
2019-05-20T00:14:41.964Z,100501.16
2019-05-20T00:15:44.172Z,100498.55
2019-05-20T00:16:46.761Z,100498.15
2019-05-20T00:17:48.967Z,100492.91
2019-05-20T00:18:51.552Z,100488.98
2019-05-20T00:19:53.769Z,100494.22
2019-05-20T00:20:56.327Z,100496.84
2019-05-20T00:21:58.564Z,100492.91
2019-05-20T00:23:01.137Z,100494.22
2019-05-20T00:24:03.345Z,100488.47
2019-05-20T00:25:05.999Z,100496.45
2019-05-20T00:26:09.941Z,100494.62
2019-05-20T00:27:12.528Z,100488.47
2019-05-20T00:28:14.723Z,100496.84
2019-05-20T00:29:17.305Z,100496.84
2019-05-20T00:30:19.512Z,100494.10
2019-05-20T00:31:22.081Z,100491.09
2019-05-20T00:32:38.814Z,100497.23
2019-05-20T00:33:28.553Z,100498.15
2019-05-20T00:34:35.095Z,100497.63
2019-05-20T00:35:34.974Z,100496.33
2019-05-20T00:36:37.171Z,100492.39
2019-05-20T00:37:39.782Z,100499.45
2019-05-20T00:38:41.988Z,100498.55
2019-05-20T00:39:44.578Z,100497.63
2019-05-20T00:40:46.768Z,100496.33
2019-05-20T00:41:49.365Z,100492.39
2019-05-20T00:42:51.569Z,100502.08
2019-05-20T00:43:54.142Z,100495.92
2019-05-20T00:44:56.337Z,100497.23
2019-05-20T00:45:58.916Z,100495.92
2019-05-20T00:47:01.145Z,100491.20
2019-05-20T00:48:03.725Z,100492.91
2019-05-20T00:49:05.929Z,100485.97
2019-05-20T00:50:08.519Z,100487.67
2019-05-20T00:51:10.721Z,100485.97
2019-05-20T00:52:13.325Z,100481.53
2019-05-20T00:53:15.538Z,100480.62
2019-05-20T00:54:18.112Z,100479.30
2019-05-20T00:55:20.300Z,100482.84
2019-05-20T00:56:22.870Z,100483.75
2019-05-20T00:57:25.098Z,100485.97
2019-05-20T00:58:27.675Z,100486.77
2019-05-20T00:59:29.878Z,100485.85
2019-05-20T01:00:33.469Z,100487.95
2019-05-20T01:01:35.668Z,100486.25
2019-05-20T01:02:38.254Z,100491.60
2019-05-20T01:03:40.383Z,100489.38
2019-05-20T01:04:42.960Z,100484.15
2019-05-20T01:05:45.168Z,100486.25
2019-05-20T01:06:47.742Z,100487.56
2019-05-20T01:07:50.029Z,100482.72
2019-05-20T01:08:52.601Z,100484.94
2019-05-20T01:09:54.808Z,100481.53
2019-05-20T01:10:57.383Z,100478.39
2019-05-20T01:11:59.600Z,100476.69
2019-05-20T01:13:02.181Z,100479.30
2019-05-20T01:14:04.383Z,100472.25
2019-05-20T01:15:06.967Z,100477.09
2019-05-20T01:16:09.197Z,100468.32
2019-05-20T01:17:11.783Z,100473.16
2019-05-20T01:18:13.975Z,100477.09
2019-05-20T01:19:16.546Z,100473.16
2019-05-20T01:20:18.754Z,100474.98
2019-05-20T01:21:21.329Z,100471.45
2019-05-20T01:22:23.565Z,100467.92
2019-05-20T01:23:26.132Z,100469.23
2019-05-20T01:24:28.336Z,100471.06
2019-05-20T01:25:30.901Z,100471.06
2019-05-20T01:26:33.210Z,100464.79
2019-05-20T01:27:35.791Z,100468.44
2019-05-20T01:28:37.983Z,100467.53
2019-05-20T01:29:40.555Z,100471.45
2019-05-20T01:30:42.746Z,100468.32
2019-05-20T01:31:45.344Z,100469.23
2019-05-20T01:32:47.558Z,100457.45
2019-05-20T01:33:50.133Z,100465.30
2019-05-20T01:34:52.330Z,100464.91
2019-05-20T01:35:54.904Z,100463.20
2019-05-20T01:36:57.113Z,100460.98
2019-05-20T01:37:59.716Z,100466.61
2019-05-20T01:39:01.905Z,100462.69
2019-05-20T01:40:04.485Z,100460.07
2019-05-20T01:41:06.696Z,100460.86
2019-05-20T01:42:09.269Z,100463.08
2019-05-20T01:43:11.451Z,100464.00
2019-05-20T01:44:14.029Z,100464.39
2019-05-20T01:45:16.248Z,100462.69
2019-05-20T01:46:18.834Z,100462.69
2019-05-20T01:47:21.077Z,100458.77
2019-05-20T01:48:23.641Z,100460.86
2019-05-20T01:49:25.832Z,100457.85
2019-05-20T01:50:28.407Z,100463.59
2019-05-20T01:51:30.604Z,100460.07
2019-05-20T01:52:33.198Z,100457.85
2019-05-20T01:53:35.421Z,100460.98
2019-05-20T01:54:38.007Z,100464.00
2019-05-20T01:55:40.190Z,100456.94
2019-05-20T01:56:42.703Z,100465.30
2019-05-20T01:57:44.912Z,100462.69
2019-05-20T01:58:47.479Z,100461.38
2019-05-20T01:59:49.678Z,100460.47
2019-05-20T02:00:52.273Z,100461.78
2019-05-20T02:01:54.471Z,100464.00
2019-05-20T02:02:57.076Z,100463.87
2019-05-20T02:03:59.282Z,100460.07
2019-05-20T02:05:01.883Z,100457.85
2019-05-20T02:06:04.090Z,100456.54
2019-05-20T02:07:06.668Z,100456.02
2019-05-20T02:08:08.899Z,100461.38
2019-05-20T02:09:11.470Z,100458.09
2019-05-20T02:10:15.052Z,100453.92
2019-05-20T02:11:17.542Z,100457.85
2019-05-20T02:12:19.744Z,100460.47
2019-05-20T02:13:22.310Z,100456.14
2019-05-20T02:14:26.242Z,100456.94
2019-05-20T02:15:34.252Z,100456.94
2019-05-20T02:16:36.493Z,100456.54
2019-05-20T02:17:39.082Z,100447.77
2019-05-20T02:18:41.268Z,100448.69
2019-05-20T02:19:43.838Z,100452.09
2019-05-20T02:20:46.056Z,100449.08
2019-05-20T02:21:48.635Z,100450.00
2019-05-20T02:22:50.836Z,100451.70
2019-05-20T02:23:53.418Z,100446.86
2019-05-20T02:24:55.614Z,100451.30
2019-05-20T02:25:58.187Z,100451.70
2019-05-20T02:27:00.304Z,100458.25
2019-05-20T02:28:02.909Z,100454.72
2019-05-20T02:29:05.102Z,100455.23
2019-05-20T02:30:07.682Z,100454.84
2019-05-20T02:31:09.881Z,100453.02
2019-05-20T02:32:12.471Z,100457.33
2019-05-20T02:33:14.685Z,100451.70
2019-05-20T02:34:17.254Z,100456.94
2019-05-20T02:35:19.458Z,100452.50
2019-05-20T02:36:22.246Z,100458.37
2019-05-20T02:37:24.439Z,100460.86
2019-05-20T02:38:27.010Z,100463.48
2019-05-20T02:39:29.213Z,100459.16
2019-05-20T02:40:31.777Z,100467.41
2019-05-20T02:41:33.983Z,100464.39
2019-05-20T02:42:36.558Z,100470.94
2019-05-20T02:43:38.835Z,100467.80
2019-05-20T02:44:41.413Z,100470.42
2019-05-20T02:45:43.615Z,100470.42
2019-05-20T02:46:46.205Z,100475.27
2019-05-20T02:47:48.404Z,100475.66
2019-05-20T02:48:50.992Z,100476.17
2019-05-20T02:49:53.182Z,100468.72
2019-05-20T02:50:55.758Z,100474.86
2019-05-20T02:51:57.966Z,100467.41
2019-05-20T02:53:00.535Z,100467.80
2019-05-20T02:54:02.832Z,100468.72
2019-05-20T02:55:05.456Z,100467.80
2019-05-20T02:56:07.661Z,100464.27
2019-05-20T02:57:10.232Z,100466.50
2019-05-20T02:58:12.415Z,100465.58
2019-05-20T02:59:15.013Z,100470.94
2019-05-20T03:00:17.235Z,100463.48
2019-05-20T03:01:22.025Z,100460.34
2019-05-20T03:02:23.664Z,100466.09
2019-05-20T03:03:26.231Z,100464.79
2019-05-20T03:04:28.474Z,100462.57
2019-05-20T03:05:31.044Z,100464.64
2019-05-20T03:06:33.243Z,100472.25
2019-05-20T03:07:35.819Z,100467.80
2019-05-20T03:08:38.014Z,100471.73
2019-05-20T03:09:40.615Z,100475.66
2019-05-20T03:10:42.806Z,100475.66
2019-05-20T03:11:45.390Z,100476.97
2019-05-20T03:12:47.579Z,100479.58
2019-05-20T03:13:50.151Z,100479.58
2019-05-20T03:14:52.366Z,100478.27
2019-05-20T03:15:54.935Z,100478.79
2019-05-20T03:16:57.434Z,100476.97
2019-05-20T03:18:00.009Z,100479.58
2019-05-20T03:19:02.204Z,100479.19
2019-05-20T03:20:04.812Z,100480.50
2019-05-20T03:21:07.088Z,100484.42
2019-05-20T03:22:09.663Z,100481.29
2019-05-20T03:23:11.849Z,100486.89
2019-05-20T03:24:14.431Z,100487.83
2019-05-20T03:25:16.686Z,100483.91
2019-05-20T03:26:19.313Z,100483.52
2019-05-20T03:27:21.513Z,100484.82
2019-05-20T03:28:24.084Z,100480.34
2019-05-20T03:29:26.282Z,100481.29
2019-05-20T03:30:28.885Z,100476.41
2019-05-20T03:31:31.068Z,100479.98
2019-05-20T03:32:33.664Z,100478.67
2019-05-20T03:33:35.868Z,100483.91
2019-05-20T03:34:47.670Z,100483.91
2019-05-20T03:35:42.285Z,100481.29
2019-05-20T03:36:44.864Z,100479.03
2019-05-20T03:37:47.057Z,100486.12
2019-05-20T03:38:49.848Z,100488.75
2019-05-20T03:39:52.041Z,100488.75
2019-05-20T03:40:54.631Z,100484.82
2019-05-20T03:41:56.828Z,100483.52
2019-05-20T03:42:59.399Z,100478.67
2019-05-20T03:44:01.616Z,100484.82
2019-05-20T03:45:04.191Z,100482.59
2019-05-20T03:46:06.414Z,100486.89
2019-05-20T03:47:08.983Z,100485.97
2019-05-20T03:48:11.185Z,100484.27
2019-05-20T03:49:13.768Z,100489.14
2019-05-20T03:50:15.974Z,100479.43
2019-05-20T03:51:18.587Z,100481.66
2019-05-20T03:52:20.766Z,100482.59
2019-05-20T03:53:23.334Z,100477.73
2019-05-20T03:54:25.560Z,100475.66
2019-05-20T03:55:28.091Z,100472.88
2019-05-20T03:56:30.330Z,100475.11
2019-05-20T03:57:32.926Z,100478.13
2019-05-20T03:58:35.120Z,100472.48
2019-05-20T03:59:37.709Z,100476.81
2019-05-20T04:00:39.895Z,100479.03
2019-05-20T04:01:42.413Z,100479.43
2019-05-20T04:02:44.621Z,100477.36
2019-05-20T04:03:47.195Z,100483.91
2019-05-20T04:05:01.585Z,100477.73
2019-05-20T04:05:53.625Z,100477.36
2019-05-20T04:06:55.864Z,100471.18
2019-05-20T04:07:58.431Z,100470.27
2019-05-20T04:09:00.644Z,100473.80
2019-05-20T04:10:03.246Z,100472.48
2019-05-20T04:11:05.418Z,100469.51
2019-05-20T04:12:08.042Z,100471.58
2019-05-20T04:13:10.232Z,100469.88
2019-05-20T04:14:12.818Z,100466.34
2019-05-20T04:15:15.030Z,100468.95
2019-05-20T04:16:17.600Z,100470.82
2019-05-20T04:17:19.825Z,100476.41
2019-05-20T04:18:22.385Z,100478.67
2019-05-20T04:19:24.592Z,100473.80
2019-05-20T04:20:27.171Z,100471.73
2019-05-20T04:21:29.377Z,100473.44
2019-05-20T04:22:31.969Z,100473.44
2019-05-20T04:23:34.308Z,100474.75
2019-05-20T04:24:36.806Z,100472.88
2019-05-20T04:25:39.009Z,100466.73
2019-05-20T04:26:41.583Z,100468.56
2019-05-20T04:27:43.823Z,100468.95
2019-05-20T04:28:46.399Z,100466.34
2019-05-20T04:29:48.611Z,100464.27
2019-05-20T04:30:51.363Z,100464.64
2019-05-20T04:31:53.555Z,100461.11
2019-05-20T04:32:56.162Z,100454.56
2019-05-20T04:33:58.362Z,100454.16
2019-05-20T04:35:19.773Z,100455.88
2019-05-20T04:36:04.801Z,100452.86
2019-05-20T04:37:07.376Z,100452.86
2019-05-20T04:38:09.620Z,100451.95
2019-05-20T04:39:12.220Z,100453.25
2019-05-20T04:40:14.401Z,100455.88
2019-05-20T04:41:16.982Z,100456.42
2019-05-20T04:42:19.185Z,100457.18
2019-05-20T04:43:21.776Z,100459.41
2019-05-20T04:44:25.707Z,100456.42
2019-05-20T04:45:28.304Z,100454.96
2019-05-20T04:46:30.521Z,100461.27
2019-05-20T04:47:33.113Z,100458.09
2019-05-20T04:48:35.401Z,100461.66
2019-05-20T04:49:38.047Z,100461.11
2019-05-20T04:50:40.248Z,100457.73
2019-05-20T04:51:42.825Z,100456.42
2019-05-20T04:52:45.047Z,100457.73
2019-05-20T04:53:47.627Z,100449.33
2019-05-20T04:54:50.001Z,100455.48
2019-05-20T04:55:52.616Z,100457.18
2019-05-20T04:56:54.823Z,100457.73
2019-05-20T04:57:57.413Z,100454.16
2019-05-20T04:58:59.626Z,100451.55
2019-05-20T05:00:02.205Z,100458.48
2019-05-20T05:01:04.520Z,100453.80
2019-05-20T05:02:07.095Z,100457.18
2019-05-20T05:03:09.300Z,100458.89
2019-05-20T05:04:11.902Z,100460.70
2019-05-20T05:05:14.100Z,100453.65
2019-05-20T05:06:16.694Z,100455.88
2019-05-20T05:07:18.921Z,100454.56
2019-05-20T05:08:21.510Z,100456.42
2019-05-20T05:09:23.796Z,100457.73
2019-05-20T05:10:26.380Z,100457.33
2019-05-20T05:11:28.590Z,100455.88
2019-05-20T05:12:31.171Z,100452.86
2019-05-20T05:13:33.386Z,100448.93
2019-05-20T05:14:36.010Z,100441.08
2019-05-20T05:15:38.207Z,100444.64
2019-05-20T05:16:40.807Z,100444.64
2019-05-20T05:17:42.998Z,100443.18
2019-05-20T05:18:45.595Z,100442.38
2019-05-20T05:19:47.830Z,100443.33
2019-05-20T05:20:50.434Z,100445.95
2019-05-20T05:21:52.620Z,100441.47
2019-05-20T05:22:55.248Z,100449.72
2019-05-20T05:23:59.513Z,100448.93
2019-05-20T05:25:01.724Z,100444.64
2019-05-20T05:26:03.944Z,100455.23
2019-05-20T05:27:06.538Z,100446.98
2019-05-20T05:28:08.743Z,100448.80
2019-05-20T05:29:11.331Z,100446.98
2019-05-20T05:30:13.528Z,100445.27
2019-05-20T05:31:16.100Z,100447.09
2019-05-20T05:32:37.266Z,100442.26
2019-05-20T05:33:39.497Z,100445.00
2019-05-20T05:34:42.082Z,100445.62
2019-05-20T05:35:52.748Z,100445.62
2019-05-20T05:36:48.540Z,100438.57
2019-05-20T05:37:50.892Z,100438.97
2019-05-20T05:38:53.494Z,100445.11
2019-05-20T05:39:55.711Z,100436.34
2019-05-20T05:40:58.304Z,100443.02
2019-05-20T05:42:00.512Z,100440.91
2019-05-20T05:43:03.102Z,100433.57
2019-05-20T05:44:05.299Z,100433.57
2019-05-20T05:45:07.897Z,100437.50
2019-05-20T05:46:10.119Z,100433.45
2019-05-20T05:47:14.490Z,100432.14
2019-05-20T05:48:16.725Z,100436.98
2019-05-20T05:49:22.291Z,100440.80
2019-05-20T05:50:24.538Z,100438.17
2019-05-20T05:51:27.131Z,100446.55
2019-05-20T05:52:29.530Z,100447.85
2019-05-20T05:53:32.136Z,100448.64
2019-05-20T05:54:34.348Z,100445.00
2019-05-20T05:55:36.976Z,100451.42
2019-05-20T05:56:39.187Z,100449.08
2019-05-20T05:57:41.916Z,100447.63
2019-05-20T05:58:44.050Z,100449.59
2019-05-20T05:59:46.670Z,100449.59
2019-05-20T06:00:48.933Z,100451.82
2019-05-20T06:01:51.515Z,100454.84
2019-05-20T06:02:53.731Z,100455.35
2019-05-20T06:03:56.322Z,100452.34
2019-05-20T06:04:58.642Z,100451.03
2019-05-20T06:06:11.217Z,100454.95
2019-05-20T06:07:05.083Z,100456.38
2019-05-20T06:08:07.728Z,100454.55
2019-05-20T06:09:09.948Z,100456.38
2019-05-20T06:10:12.523Z,100457.17
2019-05-20T06:11:14.756Z,100454.55
2019-05-20T06:12:17.384Z,100454.44
2019-05-20T06:13:19.579Z,100454.95
2019-05-20T06:14:22.187Z,100454.16
2019-05-20T06:15:24.384Z,100457.17
2019-05-20T06:16:36.636Z,100454.67
2019-05-20T06:17:30.845Z,100458.60
2019-05-20T06:18:33.422Z,100457.30
2019-05-20T06:19:35.658Z,100459.12
2019-05-20T06:20:38.244Z,100457.81
2019-05-20T06:21:40.475Z,100449.16
2019-05-20T06:22:43.067Z,100461.45
2019-05-20T06:23:45.327Z,100455.70
2019-05-20T06:24:49.641Z,100455.31
2019-05-20T06:25:51.870Z,100456.22
2019-05-20T06:26:54.469Z,100450.08
2019-05-20T06:27:56.694Z,100450.19
2019-05-20T06:29:02.732Z,100448.37
2019-05-20T06:30:03.148Z,100448.37
2019-05-20T06:31:05.753Z,100450.08
2019-05-20T06:32:07.956Z,100449.28
2019-05-20T06:33:10.543Z,100446.14
2019-05-20T06:34:12.668Z,100449.28
2019-05-20T06:35:17.212Z,100452.30
2019-05-20T06:36:27.022Z,100450.98
2019-05-20T06:37:24.600Z,100456.73
2019-05-20T06:38:43.711Z,100449.67
2019-05-20T06:39:46.299Z,100447.06
2019-05-20T06:40:48.539Z,100443.25
2019-05-20T06:41:51.297Z,100449.80
2019-05-20T06:42:56.464Z,100446.27
2019-05-20T06:43:59.163Z,100451.10
2019-05-20T06:45:01.648Z,100445.35
2019-05-20T06:46:04.404Z,100454.52
2019-05-20T06:47:06.901Z,100454.52
2019-05-20T06:48:09.790Z,100451.10
2019-05-20T06:49:12.434Z,100454.12
2019-05-20T06:50:15.143Z,100455.03
2019-05-20T06:51:17.804Z,100456.34
2019-05-20T06:52:35.247Z,100455.94
2019-05-20T06:53:25.650Z,100462.48
2019-05-20T06:54:28.239Z,100461.97
2019-05-20T06:55:30.461Z,100459.75
2019-05-20T06:56:33.028Z,100465.11
2019-05-20T06:57:35.261Z,100465.50
2019-05-20T06:58:37.850Z,100466.41
2019-05-20T06:59:40.067Z,100467.20
2019-05-20T07:00:42.703Z,100468.52
2019-05-20T07:01:45.064Z,100474.27
2019-05-20T07:02:47.683Z,100473.36
2019-05-20T07:03:51.701Z,100474.27
2019-05-20T07:04:54.282Z,100473.75
2019-05-20T07:05:56.613Z,100480.70
2019-05-20T07:06:59.235Z,100477.68
2019-05-20T07:08:01.632Z,100478.59
2019-05-20T07:09:05.153Z,100476.38
2019-05-20T07:10:07.396Z,100475.98
2019-05-20T07:11:09.980Z,100483.44
2019-05-20T07:12:12.223Z,100478.20
2019-05-20T07:13:16.369Z,100479.51
2019-05-20T07:14:19.081Z,100475.98
2019-05-20T07:15:21.652Z,100476.49
2019-05-20T07:16:23.866Z,100472.84
2019-05-20T07:17:26.443Z,100477.41
2019-05-20T07:18:28.714Z,100473.88
2019-05-20T07:19:31.305Z,100469.95
2019-05-20T07:20:33.589Z,100475.18
2019-05-20T07:21:36.172Z,100472.96
2019-05-20T07:22:54.434Z,100473.88
2019-05-20T07:23:42.786Z,100472.96
2019-05-20T07:24:45.023Z,100473.88
2019-05-20T07:25:47.631Z,100474.78
2019-05-20T07:26:51.371Z,100481.33
2019-05-20T07:27:54.098Z,100482.52
2019-05-20T07:28:56.293Z,100483.03
2019-05-20T07:29:58.882Z,100480.42
2019-05-20T07:31:01.093Z,100480.42
2019-05-20T07:32:03.680Z,100476.49
2019-05-20T07:33:05.898Z,100479.11
2019-05-20T07:34:08.526Z,100473.48
2019-05-20T07:35:10.749Z,100473.48
2019-05-20T07:36:13.372Z,100478.71
2019-05-20T07:37:15.621Z,100480.02
2019-05-20T07:38:18.350Z,100478.71
2019-05-20T07:39:20.586Z,100482.24
2019-05-20T07:40:23.195Z,100480.02
2019-05-20T07:41:25.405Z,100475.34
2019-05-20T07:42:27.993Z,100480.94
2019-05-20T07:43:30.204Z,100477.55
2019-05-20T07:44:32.913Z,100476.64
2019-05-20T07:45:36.098Z,100474.94
2019-05-20T07:46:38.694Z,100469.15
2019-05-20T07:47:40.904Z,100467.48
2019-05-20T07:48:43.531Z,100471.52
2019-05-20T07:49:45.743Z,100472.32
2019-05-20T07:50:48.364Z,100476.77
2019-05-20T07:51:50.566Z,100475.05
2019-05-20T07:52:53.205Z,100469.30
2019-05-20T07:53:55.481Z,100478.47
2019-05-20T07:54:58.140Z,100475.85
2019-05-20T07:56:00.934Z,100473.63
2019-05-20T07:57:03.515Z,100478.07
2019-05-20T07:58:05.875Z,100476.77
2019-05-20T07:59:08.438Z,100479.78
2019-05-20T08:00:10.917Z,100474.14
2019-05-20T08:01:13.534Z,100480.30
2019-05-20T08:02:15.818Z,100478.47
2019-05-20T08:03:18.411Z,100481.20
2019-05-20T08:04:20.654Z,100479.50
2019-05-20T08:05:23.221Z,100477.67
2019-05-20T08:06:25.511Z,100479.90
2019-05-20T08:07:49.905Z,100478.19
2019-05-20T08:08:31.932Z,100483.03
2019-05-20T08:09:44.606Z,100479.50
2019-05-20T08:10:40.093Z,100479.50
2019-05-20T08:11:42.707Z,100475.05
2019-05-20T08:12:44.956Z,100480.81
2019-05-20T08:13:47.639Z,100477.67
2019-05-20T08:14:49.859Z,100482.52
2019-05-20T08:15:52.468Z,100472.32
2019-05-20T08:16:54.740Z,100477.67
2019-05-20T08:17:57.329Z,100476.88
2019-05-20T08:18:59.556Z,100479.38
2019-05-20T08:20:03.832Z,100484.62
2019-05-20T08:21:06.204Z,100485.92
2019-05-20T08:22:08.807Z,100486.95
2019-05-20T08:23:11.148Z,100486.84
2019-05-20T08:24:13.871Z,100485.65
2019-05-20T08:25:16.075Z,100486.56
2019-05-20T08:26:18.693Z,100486.16
2019-05-20T08:27:20.924Z,100486.56
2019-05-20T08:28:23.626Z,100485.25
2019-05-20T08:29:27.151Z,100487.87
2019-05-20T08:30:29.871Z,100486.95
2019-05-20T08:31:32.208Z,100487.47
2019-05-20T08:32:34.797Z,100486.68
2019-05-20T08:33:37.088Z,100491.92
2019-05-20T08:34:40.510Z,100490.21
2019-05-20T08:35:42.989Z,100489.30
2019-05-20T08:36:45.579Z,100493.74
2019-05-20T08:37:47.817Z,100491.92
2019-05-20T08:38:50.411Z,100497.27
2019-05-20T08:39:52.727Z,100492.44
2019-05-20T08:40:55.326Z,100495.05
2019-05-20T08:41:57.762Z,100489.30
2019-05-20T08:43:00.356Z,100491.52
2019-05-20T08:44:02.579Z,100491.52
2019-05-20T08:45:05.268Z,100492.44
2019-05-20T08:46:07.633Z,100492.44
2019-05-20T08:47:10.276Z,100492.03
2019-05-20T08:48:12.479Z,100491.52
2019-05-20T08:49:15.074Z,100493.74
2019-05-20T08:50:17.283Z,100488.91
2019-05-20T08:51:19.909Z,100488.91
2019-05-20T08:52:22.153Z,100491.13
2019-05-20T08:53:24.733Z,100492.83
2019-05-20T08:54:26.945Z,100492.03
2019-05-20T08:55:29.572Z,100496.36
2019-05-20T08:56:31.789Z,100500.29
2019-05-20T08:57:34.413Z,100498.19
2019-05-20T08:58:36.607Z,100492.03
2019-05-20T08:59:39.209Z,100494.77
2019-05-20T09:00:41.478Z,100492.03
2019-05-20T09:01:44.239Z,100487.71
2019-05-20T09:02:46.492Z,100492.44
2019-05-20T09:03:49.090Z,100495.05
2019-05-20T09:04:51.327Z,100487.98
2019-05-20T09:05:53.936Z,100493.23
2019-05-20T09:06:56.118Z,100489.30
2019-05-20T09:08:03.771Z,100485.89
2019-05-20T09:09:02.601Z,100487.08
2019-05-20T09:10:05.178Z,100491.92
2019-05-20T09:11:07.400Z,100489.81
2019-05-20T09:12:09.993Z,100491.52
2019-05-20T09:13:12.231Z,100485.38
2019-05-20T09:14:14.819Z,100486.28
2019-05-20T09:15:17.044Z,100484.70
2019-05-20T09:16:19.643Z,100477.23
2019-05-20T09:17:21.870Z,100481.68
2019-05-20T09:18:24.466Z,100479.98
2019-05-20T09:19:26.726Z,100485.61
2019-05-20T09:20:29.266Z,100485.21
2019-05-20T09:21:31.505Z,100479.98
2019-05-20T09:22:34.144Z,100479.98
2019-05-20T09:23:36.424Z,100484.81
2019-05-20T09:24:39.662Z,100485.61
2019-05-20T09:25:42.029Z,100486.92
2019-05-20T09:26:44.667Z,100488.34
2019-05-20T09:27:46.890Z,100490.05
2019-05-20T09:28:49.474Z,100483.50
2019-05-20T09:29:51.669Z,100492.67
2019-05-20T09:30:54.258Z,100490.05
2019-05-20T09:31:56.485Z,100485.21
2019-05-20T09:32:59.068Z,100490.05
2019-05-20T09:34:01.304Z,100490.97
2019-05-20T09:35:03.859Z,100486.64
2019-05-20T09:36:06.143Z,100487.03
2019-05-20T09:37:08.762Z,100487.95
2019-05-20T09:38:20.091Z,100487.55
2019-05-20T09:39:15.346Z,100494.09
2019-05-20T09:40:17.550Z,100492.67
2019-05-20T09:41:20.149Z,100496.20
2019-05-20T09:42:22.353Z,100493.06
2019-05-20T09:43:25.003Z,100491.36
2019-05-20T09:44:27.188Z,100493.19
2019-05-20T09:45:29.793Z,100491.48
2019-05-20T09:46:32.047Z,100487.55
2019-05-20T09:47:34.711Z,100489.77
2019-05-20T09:48:37.015Z,100487.95
2019-05-20T09:49:39.616Z,100492.78
2019-05-20T09:50:41.853Z,100492.67
2019-05-20T09:51:44.424Z,100492.27
2019-05-20T09:52:46.742Z,100484.42
2019-05-20T09:53:49.350Z,100487.95
2019-05-20T09:54:51.558Z,100486.12
2019-05-20T09:55:54.334Z,100490.97
2019-05-20T09:56:56.557Z,100488.34
2019-05-20T09:57:59.309Z,100489.77
2019-05-20T09:59:02.886Z,100488.06
2019-05-20T10:00:05.477Z,100492.94
2019-05-20T10:01:07.695Z,100492.39
2019-05-20T10:02:10.285Z,100488.46
2019-05-20T10:03:12.502Z,100486.75
2019-05-20T10:04:15.096Z,100488.61
2019-05-20T10:05:17.348Z,100486.39
2019-05-20T10:06:20.073Z,100485.09
2019-05-20T10:07:22.267Z,100487.16
2019-05-20T10:08:37.492Z,100493.70
2019-05-20T10:09:28.982Z,100483.22
2019-05-20T10:10:31.590Z,100489.92
2019-05-20T10:11:34.014Z,100489.53
2019-05-20T10:12:45.993Z,100487.82
2019-05-20T10:13:40.466Z,100490.44
2019-05-20T10:14:43.109Z,100488.34
2019-05-20T10:15:45.302Z,100493.70
2019-05-20T10:16:47.875Z,100487.03
2019-05-20T10:17:50.117Z,100490.95
2019-05-20T10:18:55.352Z,100488.22
2019-05-20T10:19:56.583Z,100499.73
2019-05-20T10:21:00.448Z,100491.87
2019-05-20T10:22:02.659Z,100490.95
2019-05-20T10:23:05.376Z,100492.66
2019-05-20T10:24:07.577Z,100499.21
2019-05-20T10:25:10.267Z,100493.97
2019-05-20T10:26:12.489Z,100493.58
2019-05-20T10:27:15.087Z,100493.70
2019-05-20T10:28:17.344Z,100484.53
2019-05-20T10:29:19.923Z,100486.07
2019-05-20T10:30:22.128Z,100490.23
2019-05-20T10:31:24.715Z,100496.50
2019-05-20T10:32:26.947Z,100494.28
2019-05-20T10:33:29.551Z,100494.16
2019-05-20T10:34:31.747Z,100494.05
2019-05-20T10:35:34.341Z,100491.55
2019-05-20T10:36:36.552Z,100491.83
2019-05-20T10:37:39.852Z,100491.83
2019-05-20T10:38:58.102Z,100494.84
2019-05-20T10:39:46.335Z,100489.09
2019-05-20T10:40:48.560Z,100481.11
2019-05-20T10:41:51.150Z,100490.00
2019-05-20T10:42:53.334Z,100493.93
2019-05-20T10:43:55.938Z,100487.90
2019-05-20T10:44:58.148Z,100488.69
2019-05-20T10:46:00.729Z,100491.70
2019-05-20T10:47:02.976Z,100500.48
2019-05-20T10:48:08.722Z,100498.77
2019-05-20T10:49:09.499Z,100495.64
2019-05-20T10:50:12.084Z,100493.81
2019-05-20T10:51:14.309Z,100500.88
2019-05-20T10:52:16.909Z,100499.17
2019-05-20T10:53:19.130Z,100497.86
2019-05-20T10:54:21.716Z,100496.55
2019-05-20T10:55:24.015Z,100499.17
2019-05-20T10:56:26.605Z,100496.15
2019-05-20T10:57:28.889Z,100499.28
2019-05-20T10:58:31.465Z,100494.96
2019-05-20T10:59:33.723Z,100492.97
2019-05-20T11:00:36.348Z,100490.35
2019-05-20T11:01:38.549Z,100489.05
2019-05-20T11:02:41.126Z,100493.88
2019-05-20T11:03:43.378Z,100497.05
2019-05-20T11:04:45.992Z,100496.14
2019-05-20T11:05:48.174Z,100491.27
2019-05-20T11:06:50.766Z,100496.50
2019-05-20T11:07:53.024Z,100487.34
2019-05-20T11:08:55.640Z,100501.89
2019-05-20T11:09:57.849Z,100497.05
2019-05-20T11:11:00.444Z,100495.98
2019-05-20T11:12:02.655Z,100491.81
2019-05-20T11:13:05.236Z,100492.22
2019-05-20T11:14:07.488Z,100491.27
2019-05-20T11:15:10.084Z,100486.42
2019-05-20T11:16:12.321Z,100483.41
2019-05-20T11:17:15.260Z,100488.65
2019-05-20T11:18:17.515Z,100489.05
2019-05-20T11:19:20.133Z,100489.59
2019-05-20T11:20:22.339Z,100490.91
2019-05-20T11:21:24.904Z,100492.22
2019-05-20T11:22:27.100Z,100488.80
2019-05-20T11:23:29.699Z,100492.33
2019-05-20T11:24:31.982Z,100492.45
2019-05-20T11:25:35.095Z,100493.24
2019-05-20T11:26:37.309Z,100488.92
2019-05-20T11:27:39.916Z,100494.16
2019-05-20T11:28:42.125Z,100489.83
2019-05-20T11:29:44.725Z,100488.00
2019-05-20T11:30:46.859Z,100495.47
2019-05-20T11:31:49.447Z,100492.05
2019-05-20T11:32:51.650Z,100492.45
2019-05-20T11:33:57.514Z,100494.67
2019-05-20T11:34:58.163Z,100493.36
2019-05-20T11:36:00.904Z,100494.27
2019-05-20T11:37:03.178Z,100487.33
2019-05-20T11:38:05.740Z,100494.39
2019-05-20T11:39:08.269Z,100489.95
2019-05-20T11:40:11.888Z,100488.23
2019-05-20T11:41:14.665Z,100490.86
2019-05-20T11:42:17.266Z,100484.31
2019-05-20T11:43:19.493Z,100488.23
2019-05-20T11:44:22.052Z,100483.91
2019-05-20T11:45:24.262Z,100486.02
2019-05-20T11:46:26.853Z,100483.52
2019-05-20T11:47:29.193Z,100491.37
2019-05-20T11:48:31.882Z,100487.56
2019-05-20T11:49:34.134Z,100491.48
2019-05-20T11:50:36.712Z,100490.18
2019-05-20T11:51:38.909Z,100486.65
2019-05-20T11:52:41.644Z,100490.58
2019-05-20T11:53:43.823Z,100489.27